Terminal Aerodrome Forecast
Issued by NWS Charleston, WV

Current Version | Previous Version | Graphics & Text | Print | Product List | Glossary On
Versions: 1 2 3 4 5 6 7 8 9 10 11 12 13 14 15 16 17 18 19 20 21 22
728
FTUS41 KRLX 122320
TAFCRW
TAF
KCRW 122320Z 1300/1324 28010G15KT P6SM OVC035
     FM130300 30012G22KT 1SM -SHSN BR OVC010
     FM130500 31012G19KT 5SM -SHSN OVC020
     FM130800 30012G18KT P6SM BKN025
     FM131700 31009KT P6SM BKN035=

USA.gov is the U.S. government's official web portal to all federal, state and local government web resources and services.